sensor_id;sensor_type;location;lat;lon;timestamp;P1;durP1;ratioP1;P2;durP2;ratioP2
10452;SDS011;5274;51.992;8.518;2024-02-04T00:02:06;102.22;;;93.97;;
10452;SDS011;5274;51.992;8.518;2024-02-04T00:04:32;110.57;;;101.88;;
10452;SDS011;5274;51.992;8.518;2024-02-04T00:06:59;107.03;;;98.43;;
10452;SDS011;5274;51.992;8.518;2024-02-04T00:09:24;106.53;;;98.05;;
10452;SDS011;5274;51.992;8.518;2024-02-04T00:11:52;106.13;;;97.60;;
10452;SDS011;5274;51.992;8.518;2024-02-04T00:14:18;104.83;;;96.53;;
10452;SDS011;5274;51.992;8.518;2024-02-04T00:16:43;104.50;;;96.43;;
10452;SDS011;5274;51.992;8.518;2024-02-04T00:19:09;103.63;;;95.60;;
10452;SDS011;5274;51.992;8.518;2024-02-04T00:21:34;107.50;;;99.15;;
10452;SDS011;5274;51.992;8.518;2024-02-04T00:24:00;106.10;;;97.90;;
10452;SDS011;5274;51.992;8.518;2024-02-04T00:26:25;105.50;;;97.40;;
10452;SDS011;5274;51.992;8.518;2024-02-04T00:28:51;108.55;;;100.03;;
10452;SDS011;5274;51.992;8.518;2024-02-04T00:31:16;108.00;;;99.80;;
10452;SDS011;5274;51.992;8.518;2024-02-04T00:33:42;110.38;;;101.88;;
10452;SDS011;5274;51.992;8.518;2024-02-04T00:36:08;109.93;;;101.43;;
10452;SDS011;5274;51.992;8.518;2024-02-04T00:38:33;109.00;;;100.70;;
10452;SDS011;5274;51.992;8.518;2024-02-04T00:40:59;105.22;;;97.03;;
10452;SDS011;5274;51.992;8.518;2024-02-04T00:43:24;102.13;;;94.30;;
10452;SDS011;5274;51.992;8.518;2024-02-04T00:45:50;101.57;;;93.70;;
10452;SDS011;5274;51.992;8.518;2024-02-04T00:48:16;100.07;;;92.40;;
10452;SDS011;5274;51.992;8.518;2024-02-04T00:50:41;101.03;;;93.30;;
10452;SDS011;5274;51.992;8.518;2024-02-04T00:53:07;101.93;;;93.97;;
10452;SDS011;5274;51.992;8.518;2024-02-04T00:55:32;102.43;;;94.63;;
10452;SDS011;5274;51.992;8.518;2024-02-04T00:57:58;102.20;;;94.40;;
10452;SDS011;5274;51.992;8.518;2024-02-04T01:00:27;102.73;;;94.77;;
10452;SDS011;5274;51.992;8.518;2024-02-04T01:02:52;100.90;;;93.20;;
10452;SDS011;5274;51.992;8.518;2024-02-04T01:05:18;105.47;;;97.20;;
10452;SDS011;5274;51.992;8.518;2024-02-04T01:07:44;105.47;;;97.38;;
10452;SDS011;5274;51.992;8.518;2024-02-04T01:10:10;108.40;;;99.90;;
10452;SDS011;5274;51.992;8.518;2024-02-04T01:12:35;109.75;;;101.15;;
10452;SDS011;5274;51.992;8.518;2024-02-04T01:15:01;114.07;;;104.93;;
10452;SDS011;5274;51.992;8.518;2024-02-04T01:17:30;109.38;;;100.70;;
10452;SDS011;5274;51.992;8.518;2024-02-04T01:19:55;110.13;;;101.43;;
10452;SDS011;5274;51.992;8.518;2024-02-04T01:22:21;108.77;;;100.27;;
10452;SDS011;5274;51.992;8.518;2024-02-04T01:24:51;110.00;;;101.40;;
10452;SDS011;5274;51.992;8.518;2024-02-04T01:27:16;108.82;;;100.43;;
10452;SDS011;5274;51.992;8.518;2024-02-04T01:29:42;110.67;;;102.07;;
10452;SDS011;5274;51.992;8.518;2024-02-04T01:32:07;116.00;;;106.80;;
10452;SDS011;5274;51.992;8.518;2024-02-04T01:34:33;114.07;;;104.93;;
10452;SDS011;5274;51.992;8.518;2024-02-04T01:36:58;113.77;;;104.67;;
10452;SDS011;5274;51.992;8.518;2024-02-04T01:39:24;117.50;;;107.90;;
10452;SDS011;5274;51.992;8.518;2024-02-04T01:41:49;111.47;;;102.68;;
10452;SDS011;5274;51.992;8.518;2024-02-04T01:44:15;113.47;;;104.40;;
10452;SDS011;5274;51.992;8.518;2024-02-04T01:46:41;115.57;;;106.33;;
10452;SDS011;5274;51.992;8.518;2024-02-04T01:49:07;116.38;;;107.18;;
10452;SDS011;5274;51.992;8.518;2024-02-04T01:51:33;116.93;;;107.68;;
10452;SDS011;5274;51.992;8.518;2024-02-04T01:53:59;121.32;;;111.57;;
10452;SDS011;5274;51.992;8.518;2024-02-04T01:56:25;127.85;;;117.03;;
10452;SDS011;5274;51.992;8.518;2024-02-04T01:58:52;126.10;;;115.45;;
10452;SDS011;5274;51.992;8.518;2024-02-04T02:01:18;121.60;;;111.50;;
10452;SDS011;5274;51.992;8.518;2024-02-04T02:03:45;125.03;;;114.28;;
10452;SDS011;5274;51.992;8.518;2024-02-04T02:06:11;125.13;;;114.60;;
10452;SDS011;5274;51.992;8.518;2024-02-04T02:08:38;124.28;;;113.45;;
10452;SDS011;5274;51.992;8.518;2024-02-04T02:11:09;124.00;;;113.40;;
10452;SDS011;5274;51.992;8.518;2024-02-04T02:13:39;121.60;;;111.28;;
10452;SDS011;5274;51.992;8.518;2024-02-04T02:16:09;124.32;;;113.68;;
10452;SDS011;5274;51.992;8.518;2024-02-04T02:18:42;124.50;;;113.68;;
10452;SDS011;5274;51.992;8.518;2024-02-04T02:26:52;113.85;;;104.35;;
10452;SDS011;5274;51.992;8.518;2024-02-04T02:29:18;27.05;;;24.75;;
10452;SDS011;5274;51.992;8.518;2024-02-04T02:31:43;26.33;;;24.13;;
10452;SDS011;5274;51.992;8.518;2024-02-04T02:34:10;27.13;;;24.83;;
10452;SDS011;5274;51.992;8.518;2024-02-04T02:36:38;27.25;;;24.95;;
10452;SDS011;5274;51.992;8.518;2024-02-04T02:39:23;26.52;;;24.33;;
10452;SDS011;5274;51.992;8.518;2024-02-04T02:41:54;25.80;;;23.70;;
10452;SDS011;5274;51.992;8.518;2024-02-04T02:44:22;25.90;;;23.80;;
10452;SDS011;5274;51.992;8.518;2024-02-04T02:46:50;26.30;;;24.17;;
10452;SDS011;5274;51.992;8.518;2024-02-04T02:49:16;26.47;;;24.20;;
10452;SDS011;5274;51.992;8.518;2024-02-04T02:51:41;24.83;;;22.77;;
10452;SDS011;5274;51.992;8.518;2024-02-04T02:54:07;23.83;;;22.10;;
10452;SDS011;5274;51.992;8.518;2024-02-04T02:56:32;23.67;;;21.77;;
10452;SDS011;5274;51.992;8.518;2024-02-04T02:58:58;23.33;;;21.52;;
10452;SDS011;5274;51.992;8.518;2024-02-04T03:01:24;23.03;;;21.17;;
10452;SDS011;5274;51.992;8.518;2024-02-04T03:03:49;23.33;;;21.52;;
10452;SDS011;5274;51.992;8.518;2024-02-04T03:06:15;23.17;;;21.37;;
10452;SDS011;5274;51.992;8.518;2024-02-04T03:08:40;23.97;;;22.07;;
10452;SDS011;5274;51.992;8.518;2024-02-04T03:11:07;23.13;;;21.43;;
10452;SDS011;5274;51.992;8.518;2024-02-04T03:13:33;21.15;;;19.73;;
10452;SDS011;5274;51.992;8.518;2024-02-04T03:15:58;20.40;;;19.00;;
10452;SDS011;5274;51.992;8.518;2024-02-04T03:18:24;20.10;;;18.80;;
10452;SDS011;5274;51.992;8.518;2024-02-04T03:20:50;18.97;;;17.70;;
10452;SDS011;5274;51.992;8.518;2024-02-04T03:23:16;18.67;;;17.58;;
10452;SDS011;5274;51.992;8.518;2024-02-04T03:25:41;19.33;;;18.13;;
10452;SDS011;5274;51.992;8.518;2024-02-04T03:28:07;18.30;;;17.20;;
10452;SDS011;5274;51.992;8.518;2024-02-04T03:30:32;19.35;;;18.15;;
10452;SDS011;5274;51.992;8.518;2024-02-04T03:32:57;19.10;;;17.90;;
10452;SDS011;5274;51.992;8.518;2024-02-04T03:35:23;19.40;;;18.10;;
10452;SDS011;5274;51.992;8.518;2024-02-04T03:37:48;19.00;;;17.80;;
10452;SDS011;5274;51.992;8.518;2024-02-04T03:40:14;18.27;;;17.17;;
10452;SDS011;5274;51.992;8.518;2024-02-04T03:42:39;17.97;;;16.80;;
10452;SDS011;5274;51.992;8.518;2024-02-04T03:45:05;17.42;;;16.42;;
10452;SDS011;5274;51.992;8.518;2024-02-04T03:47:31;18.07;;;16.97;;
10452;SDS011;5274;51.992;8.518;2024-02-04T03:49:56;18.23;;;17.10;;
10452;SDS011;5274;51.992;8.518;2024-02-04T03:52:22;18.40;;;17.23;;
10452;SDS011;5274;51.992;8.518;2024-02-04T03:54:47;19.83;;;18.53;;
10452;SDS011;5274;51.992;8.518;2024-02-04T03:57:13;19.63;;;18.30;;
10452;SDS011;5274;51.992;8.518;2024-02-04T03:59:38;19.98;;;18.65;;
10452;SDS011;5274;51.992;8.518;2024-02-04T04:02:04;20.23;;;18.90;;
10452;SDS011;5274;51.992;8.518;2024-02-04T04:04:29;20.27;;;18.97;;
10452;SDS011;5274;51.992;8.518;2024-02-04T04:06:55;20.13;;;18.70;;
10452;SDS011;5274;51.992;8.518;2024-02-04T04:09:20;21.17;;;19.60;;
10452;SDS011;5274;51.992;8.518;2024-02-04T04:11:46;20.53;;;19.13;;
10452;SDS011;5274;51.992;8.518;2024-02-04T04:14:11;20.27;;;18.83;;
10452;SDS011;5274;51.992;8.518;2024-02-04T04:16:37;19.98;;;18.67;;
10452;SDS011;5274;51.992;8.518;2024-02-04T04:19:02;20.67;;;19.37;;
10452;SDS011;5274;51.992;8.518;2024-02-04T04:21:27;20.13;;;18.83;;
10452;SDS011;5274;51.992;8.518;2024-02-04T04:23:53;19.23;;;18.03;;
10452;SDS011;5274;51.992;8.518;2024-02-04T04:26:18;18.55;;;17.42;;
10452;SDS011;5274;51.992;8.518;2024-02-04T04:28:44;18.43;;;17.33;;
10452;SDS011;5274;51.992;8.518;2024-02-04T04:31:09;17.60;;;16.57;;
10452;SDS011;5274;51.992;8.518;2024-02-04T04:33:38;17.70;;;16.50;;
10452;SDS011;5274;51.992;8.518;2024-02-04T04:36:03;18.05;;;16.95;;
10452;SDS011;5274;51.992;8.518;2024-02-04T04:38:29;17.23;;;16.30;;
10452;SDS011;5274;51.992;8.518;2024-02-04T04:40:54;17.10;;;16.10;;
10452;SDS011;5274;51.992;8.518;2024-02-04T04:43:20;17.50;;;16.50;;
10452;SDS011;5274;51.992;8.518;2024-02-04T04:45:45;17.30;;;16.30;;
10452;SDS011;5274;51.992;8.518;2024-02-04T04:48:11;17.35;;;16.35;;
10452;SDS011;5274;51.992;8.518;2024-02-04T04:50:37;15.87;;;14.97;;
10452;SDS011;5274;51.992;8.518;2024-02-04T04:53:03;15.80;;;14.90;;
10452;SDS011;5274;51.992;8.518;2024-02-04T04:55:28;15.60;;;14.60;;
10452;SDS011;5274;51.992;8.518;2024-02-04T04:57:53;15.32;;;14.50;;
10452;SDS011;5274;51.992;8.518;2024-02-04T05:00:19;15.47;;;14.40;;
10452;SDS011;5274;51.992;8.518;2024-02-04T05:02:45;15.20;;;14.43;;
10452;SDS011;5274;51.992;8.518;2024-02-04T05:05:11;15.43;;;14.63;;
10452;SDS011;5274;51.992;8.518;2024-02-04T05:07:36;15.50;;;14.70;;
10452;SDS011;5274;51.992;8.518;2024-02-04T05:10:02;97.90;;;90.50;;
10452;SDS011;5274;51.992;8.518;2024-02-04T05:12:29;100.10;;;92.50;;
10452;SDS011;5274;51.992;8.518;2024-02-04T05:14:55;100.72;;;93.20;;
10452;SDS011;5274;51.992;8.518;2024-02-04T05:17:20;101.23;;;93.53;;
10452;SDS011;5274;51.992;8.518;2024-02-04T05:19:46;102.77;;;94.97;;
10452;SDS011;5274;51.992;8.518;2024-02-04T05:22:11;102.82;;;95.03;;
10452;SDS011;5274;51.992;8.518;2024-02-04T05:24:37;102.30;;;94.43;;
10452;SDS011;5274;51.992;8.518;2024-02-04T05:27:02;101.97;;;94.17;;
10452;SDS011;5274;51.992;8.518;2024-02-04T05:29:28;105.90;;;97.70;;
10452;SDS011;5274;51.992;8.518;2024-02-04T05:31:54;104.33;;;96.23;;
10452;SDS011;5274;51.992;8.518;2024-02-04T05:34:19;106.18;;;97.82;;
10452;SDS011;5274;51.992;8.518;2024-02-04T05:36:45;107.43;;;98.93;;
10452;SDS011;5274;51.992;8.518;2024-02-04T05:39:14;106.00;;;97.80;;
10452;SDS011;5274;51.992;8.518;2024-02-04T05:41:40;103.20;;;95.30;;
10452;SDS011;5274;51.992;8.518;2024-02-04T05:44:07;102.80;;;94.90;;
10452;SDS011;5274;51.992;8.518;2024-02-04T05:46:36;102.75;;;94.95;;
10452;SDS011;5274;51.992;8.518;2024-02-04T05:49:01;101.00;;;93.43;;
10452;SDS011;5274;51.992;8.518;2024-02-04T05:51:27;100.67;;;93.07;;
10452;SDS011;5274;51.992;8.518;2024-02-04T05:53:53;103.47;;;95.38;;
10452;SDS011;5274;51.992;8.518;2024-02-04T05:56:19;103.63;;;95.45;;
10452;SDS011;5274;51.992;8.518;2024-02-04T05:58:45;106.47;;;98.18;;
10452;SDS011;5274;51.992;8.518;2024-02-04T06:01:11;105.97;;;97.77;;
10452;SDS011;5274;51.992;8.518;2024-02-04T06:03:36;104.57;;;96.55;;
10452;SDS011;5274;51.992;8.518;2024-02-04T06:06:02;105.07;;;96.87;;
10452;SDS011;5274;51.992;8.518;2024-02-04T06:08:27;107.40;;;99.10;;
10452;SDS011;5274;51.992;8.518;2024-02-04T06:10:53;107.10;;;98.72;;
10452;SDS011;5274;51.992;8.518;2024-02-04T06:13:19;104.30;;;96.33;;
10452;SDS011;5274;51.992;8.518;2024-02-04T06:15:44;102.35;;;94.65;;
10452;SDS011;5274;51.992;8.518;2024-02-04T06:18:10;107.07;;;98.68;;
10452;SDS011;5274;51.992;8.518;2024-02-04T06:20:36;105.23;;;96.93;;
10452;SDS011;5274;51.992;8.518;2024-02-04T06:23:01;104.90;;;96.60;;
10452;SDS011;5274;51.992;8.518;2024-02-04T06:25:27;104.03;;;96.00;;
10452;SDS011;5274;51.992;8.518;2024-02-04T06:27:52;105.67;;;97.47;;
10452;SDS011;5274;51.992;8.518;2024-02-04T06:30:17;101.03;;;93.43;;
10452;SDS011;5274;51.992;8.518;2024-02-04T06:32:43;100.53;;;92.88;;
10452;SDS011;5274;51.992;8.518;2024-02-04T06:35:08;96.03;;;88.60;;
10452;SDS011;5274;51.992;8.518;2024-02-04T06:37:34;100.73;;;93.10;;
10452;SDS011;5274;51.992;8.518;2024-02-04T06:39:59;104.10;;;96.10;;
10452;SDS011;5274;51.992;8.518;2024-02-04T06:42:25;108.93;;;100.47;;
10452;SDS011;5274;51.992;8.518;2024-02-04T06:44:50;109.83;;;101.17;;
10452;SDS011;5274;51.992;8.518;2024-02-04T06:47:16;108.77;;;100.33;;
10452;SDS011;5274;51.992;8.518;2024-02-04T06:49:44;103.55;;;95.78;;
10452;SDS011;5274;51.992;8.518;2024-02-04T06:52:10;104.13;;;96.43;;
10452;SDS011;5274;51.992;8.518;2024-02-04T06:54:36;94.30;;;87.57;;
10452;SDS011;5274;51.992;8.518;2024-02-04T06:57:01;94.97;;;88.07;;
10452;SDS011;5274;51.992;8.518;2024-02-04T06:59:27;90.57;;;83.97;;
10452;SDS011;5274;51.992;8.518;2024-02-04T07:01:52;97.83;;;90.67;;
10452;SDS011;5274;51.992;8.518;2024-02-04T07:04:18;99.23;;;91.63;;
10452;SDS011;5274;51.992;8.518;2024-02-04T07:06:46;103.27;;;95.50;;
10452;SDS011;5274;51.992;8.518;2024-02-04T07:09:12;98.57;;;91.40;;
10452;SDS011;5274;51.992;8.518;2024-02-04T07:11:37;98.00;;;91.00;;
10452;SDS011;5274;51.992;8.518;2024-02-04T07:14:03;98.88;;;91.88;;
10452;SDS011;5274;51.992;8.518;2024-02-04T07:16:28;100.73;;;93.43;;
10452;SDS011;5274;51.992;8.518;2024-02-04T07:18:54;95.03;;;88.27;;
10452;SDS011;5274;51.992;8.518;2024-02-04T07:21:21;97.97;;;90.97;;
10452;SDS011;5274;51.992;8.518;2024-02-04T07:23:46;101.50;;;93.83;;
10452;SDS011;5274;51.992;8.518;2024-02-04T07:26:12;104.85;;;96.95;;
10452;SDS011;5274;51.992;8.518;2024-02-04T07:28:37;108.43;;;99.93;;
10452;SDS011;5274;51.992;8.518;2024-02-04T07:31:03;109.03;;;100.53;;
10452;SDS011;5274;51.992;8.518;2024-02-04T07:33:28;110.57;;;101.87;;
10452;SDS011;5274;51.992;8.518;2024-02-04T07:35:54;106.95;;;98.57;;
10452;SDS011;5274;51.992;8.518;2024-02-04T07:38:20;105.67;;;97.60;;
10452;SDS011;5274;51.992;8.518;2024-02-04T07:40:45;86.13;;;80.43;;
10452;SDS011;5274;51.992;8.518;2024-02-04T07:43:11;90.88;;;84.80;;
10452;SDS011;5274;51.992;8.518;2024-02-04T07:45:36;91.30;;;85.13;;
10452;SDS011;5274;51.992;8.518;2024-02-04T07:48:02;90.93;;;84.53;;
10452;SDS011;5274;51.992;8.518;2024-02-04T07:50:29;86.70;;;80.90;;
10452;SDS011;5274;51.992;8.518;2024-02-04T07:52:54;85.50;;;79.50;;
10452;SDS011;5274;51.992;8.518;2024-02-04T07:55:20;90.40;;;83.90;;
10452;SDS011;5274;51.992;8.518;2024-02-04T07:57:45;89.90;;;83.63;;
10452;SDS011;5274;51.992;8.518;2024-02-04T08:00:11;91.17;;;84.70;;
10452;SDS011;5274;51.992;8.518;2024-02-04T08:02:37;87.82;;;81.93;;
10452;SDS011;5274;51.992;8.518;2024-02-04T08:05:03;93.45;;;86.80;;
10452;SDS011;5274;51.992;8.518;2024-02-04T08:07:29;90.40;;;84.40;;
10452;SDS011;5274;51.992;8.518;2024-02-04T08:09:55;90.18;;;84.07;;
10452;SDS011;5274;51.992;8.518;2024-02-04T08:12:20;81.10;;;75.67;;
10452;SDS011;5274;51.992;8.518;2024-02-04T08:14:46;77.65;;;72.45;;
10452;SDS011;5274;51.992;8.518;2024-02-04T08:17:11;78.87;;;73.43;;
10452;SDS011;5274;51.992;8.518;2024-02-04T08:19:37;84.03;;;78.27;;
10452;SDS011;5274;51.992;8.518;2024-02-04T08:22:02;83.15;;;77.55;;
10452;SDS011;5274;51.992;8.518;2024-02-04T08:24:29;83.15;;;77.55;;
10452;SDS011;5274;51.992;8.518;2024-02-04T08:26:56;83.25;;;77.70;;
10452;SDS011;5274;51.992;8.518;2024-02-04T08:29:23;83.97;;;78.32;;
10452;SDS011;5274;51.992;8.518;2024-02-04T08:31:48;90.17;;;84.33;;
10452;SDS011;5274;51.992;8.518;2024-02-04T08:34:14;91.15;;;85.03;;
10452;SDS011;5274;51.992;8.518;2024-02-04T08:36:39;90.37;;;84.30;;
10452;SDS011;5274;51.992;8.518;2024-02-04T08:39:05;84.70;;;79.30;;
10452;SDS011;5274;51.992;8.518;2024-02-04T08:41:30;89.97;;;83.80;;
10452;SDS011;5274;51.992;8.518;2024-02-04T08:43:56;94.38;;;87.97;;
10452;SDS011;5274;51.992;8.518;2024-02-04T08:46:21;94.13;;;87.80;;
10452;SDS011;5274;51.992;8.518;2024-02-04T08:48:47;92.23;;;86.00;;
10452;SDS011;5274;51.992;8.518;2024-02-04T08:51:12;93.10;;;86.82;;
10452;SDS011;5274;51.992;8.518;2024-02-04T08:53:41;91.30;;;85.25;;
10452;SDS011;5274;51.992;8.518;2024-02-04T08:56:07;92.80;;;86.40;;
10452;SDS011;5274;51.992;8.518;2024-02-04T08:58:33;80.85;;;75.65;;
10452;SDS011;5274;51.992;8.518;2024-02-04T09:01:02;87.55;;;81.60;;
10452;SDS011;5274;51.992;8.518;2024-02-04T09:03:28;87.22;;;81.43;;
10452;SDS011;5274;51.992;8.518;2024-02-04T09:05:54;91.03;;;84.80;;
10452;SDS011;5274;51.992;8.518;2024-02-04T09:08:20;90.23;;;84.03;;
10452;SDS011;5274;51.992;8.518;2024-02-04T09:10:45;91.75;;;85.10;;
10452;SDS011;5274;51.992;8.518;2024-02-04T09:13:11;91.10;;;84.57;;
10452;SDS011;5274;51.992;8.518;2024-02-04T09:15:37;90.80;;;84.70;;
10452;SDS011;5274;51.992;8.518;2024-02-04T09:18:02;89.47;;;83.18;;
10452;SDS011;5274;51.992;8.518;2024-02-04T09:20:28;86.70;;;80.40;;
10452;SDS011;5274;51.992;8.518;2024-02-04T09:22:54;83.83;;;78.20;;
10452;SDS011;5274;51.992;8.518;2024-02-04T09:25:19;81.70;;;76.07;;
10452;SDS011;5274;51.992;8.518;2024-02-04T09:27:45;81.47;;;75.32;;
10452;SDS011;5274;51.992;8.518;2024-02-04T09:30:10;81.10;;;75.53;;
10452;SDS011;5274;51.992;8.518;2024-02-04T09:32:36;80.85;;;75.35;;
10452;SDS011;5274;51.992;8.518;2024-02-04T09:35:02;83.35;;;77.88;;
10452;SDS011;5274;51.992;8.518;2024-02-04T09:37:28;83.75;;;78.03;;
10452;SDS011;5274;51.992;8.518;2024-02-04T09:39:54;82.30;;;76.80;;
10452;SDS011;5274;51.992;8.518;2024-02-04T09:42:20;80.93;;;75.73;;
10452;SDS011;5274;51.992;8.518;2024-02-04T09:44:49;89.53;;;83.15;;
10452;SDS011;5274;51.992;8.518;2024-02-04T09:47:15;79.07;;;73.67;;
10452;SDS011;5274;51.992;8.518;2024-02-04T09:49:41;86.55;;;80.85;;
10452;SDS011;5274;51.992;8.518;2024-02-04T09:52:08;78.90;;;73.63;;
10452;SDS011;5274;51.992;8.518;2024-02-04T09:54:34;76.90;;;71.97;;
10452;SDS011;5274;51.992;8.518;2024-02-04T09:57:06;70.05;;;65.28;;
10452;SDS011;5274;51.992;8.518;2024-02-04T09:59:32;81.97;;;76.55;;
10452;SDS011;5274;51.992;8.518;2024-02-04T10:01:58;82.03;;;76.73;;
10452;SDS011;5274;51.992;8.518;2024-02-04T10:04:24;79.60;;;74.60;;
10452;SDS011;5274;51.992;8.518;2024-02-04T10:06:49;88.53;;;82.73;;
10452;SDS011;5274;51.992;8.518;2024-02-04T10:09:15;81.45;;;76.38;;
10452;SDS011;5274;51.992;8.518;2024-02-04T10:11:41;88.90;;;82.80;;
10452;SDS011;5274;51.992;8.518;2024-02-04T10:14:06;78.78;;;73.57;;
10452;SDS011;5274;51.992;8.518;2024-02-04T10:16:33;79.80;;;74.57;;
10452;SDS011;5274;51.992;8.518;2024-02-04T10:19:00;78.57;;;73.43;;
10452;SDS011;5274;51.992;8.518;2024-02-04T10:21:26;75.30;;;70.40;;
10452;SDS011;5274;51.992;8.518;2024-02-04T10:23:51;80.07;;;74.97;;
10452;SDS011;5274;51.992;8.518;2024-02-04T10:26:17;83.43;;;78.10;;
10452;SDS011;5274;51.992;8.518;2024-02-04T10:28:45;77.07;;;72.30;;
10452;SDS011;5274;51.992;8.518;2024-02-04T10:31:12;78.70;;;73.63;;
10452;SDS011;5274;51.992;8.518;2024-02-04T10:33:38;78.03;;;72.97;;
10452;SDS011;5274;51.992;8.518;2024-02-04T10:36:03;84.00;;;78.70;;
10452;SDS011;5274;51.992;8.518;2024-02-04T10:38:33;82.10;;;76.68;;
10452;SDS011;5274;51.992;8.518;2024-02-04T10:41:01;83.47;;;77.88;;
10452;SDS011;5274;51.992;8.518;2024-02-04T10:43:36;78.07;;;73.07;;
10452;SDS011;5274;51.992;8.518;2024-02-04T10:46:13;88.67;;;82.87;;
10452;SDS011;5274;51.992;8.518;2024-02-04T10:48:42;82.22;;;76.72;;
10452;SDS011;5274;51.992;8.518;2024-02-04T10:51:11;83.22;;;78.05;;
10452;SDS011;5274;51.992;8.518;2024-02-04T10:53:42;84.88;;;79.35;;
10452;SDS011;5274;51.992;8.518;2024-02-04T10:56:12;83.32;;;78.03;;
10452;SDS011;5274;51.992;8.518;2024-02-04T10:58:47;78.28;;;73.38;;
10452;SDS011;5274;51.992;8.518;2024-02-04T11:01:13;77.82;;;72.70;;
10452;SDS011;5274;51.992;8.518;2024-02-04T11:03:39;75.03;;;70.05;;
10452;SDS011;5274;51.992;8.518;2024-02-04T11:06:07;77.22;;;72.28;;
10452;SDS011;5274;51.992;8.518;2024-02-04T11:08:34;83.87;;;78.27;;
10452;SDS011;5274;51.992;8.518;2024-02-04T11:11:00;85.45;;;79.70;;
10452;SDS011;5274;51.992;8.518;2024-02-04T11:13:25;82.07;;;76.97;;
10452;SDS011;5274;51.992;8.518;2024-02-04T11:15:53;84.00;;;78.55;;
10452;SDS011;5274;51.992;8.518;2024-02-04T11:23:41;70.05;;;65.35;;
10452;SDS011;5274;51.992;8.518;2024-02-04T11:26:20;73.05;;;68.15;;
10452;SDS011;5274;51.992;8.518;2024-02-04T11:28:47;72.43;;;67.60;;
10452;SDS011;5274;51.992;8.518;2024-02-04T11:31:18;72.03;;;67.38;;
10452;SDS011;5274;51.992;8.518;2024-02-04T11:33:45;81.43;;;76.03;;
10452;SDS011;5274;51.992;8.518;2024-02-04T11:36:14;81.35;;;76.05;;
10452;SDS011;5274;51.992;8.518;2024-02-04T11:38:40;73.68;;;69.03;;
10452;SDS011;5274;51.992;8.518;2024-02-04T11:41:06;81.57;;;76.43;;
10452;SDS011;5274;51.992;8.518;2024-02-04T11:43:33;75.60;;;70.90;;
10452;SDS011;5274;51.992;8.518;2024-02-04T11:45:59;89.37;;;83.73;;
10452;SDS011;5274;51.992;8.518;2024-02-04T11:48:28;88.90;;;83.22;;
10452;SDS011;5274;51.992;8.518;2024-02-04T11:50:58;85.27;;;79.90;;
10452;SDS011;5274;51.992;8.518;2024-02-04T11:53:28;85.43;;;79.97;;
10452;SDS011;5274;51.992;8.518;2024-02-04T11:55:57;85.93;;;80.45;;
10452;SDS011;5274;51.992;8.518;2024-02-04T11:58:24;86.27;;;80.60;;
10452;SDS011;5274;51.992;8.518;2024-02-04T12:00:51;92.22;;;86.18;;
10452;SDS011;5274;51.992;8.518;2024-02-04T12:03:27;87.22;;;81.53;;
10452;SDS011;5274;51.992;8.518;2024-02-04T12:05:54;87.88;;;82.07;;
10452;SDS011;5274;51.992;8.518;2024-02-04T12:08:20;84.43;;;79.03;;
10452;SDS011;5274;51.992;8.518;2024-02-04T12:10:46;93.85;;;87.57;;
10452;SDS011;5274;51.992;8.518;2024-02-04T12:13:13;86.72;;;81.45;;
10452;SDS011;5274;51.992;8.518;2024-02-04T12:15:38;89.77;;;84.03;;
10452;SDS011;5274;51.992;8.518;2024-02-04T12:18:05;90.70;;;84.93;;
10452;SDS011;5274;51.992;8.518;2024-02-04T12:20:35;92.50;;;86.68;;
10452;SDS011;5274;51.992;8.518;2024-02-04T12:23:04;94.07;;;88.03;;
10452;SDS011;5274;51.992;8.518;2024-02-04T12:25:31;97.53;;;90.82;;
10452;SDS011;5274;51.992;8.518;2024-02-04T12:28:00;96.60;;;90.20;;
10452;SDS011;5274;51.992;8.518;2024-02-04T12:30:28;94.60;;;88.45;;
10452;SDS011;5274;51.992;8.518;2024-02-04T12:35:23;95.60;;;89.57;;
10452;SDS011;5274;51.992;8.518;2024-02-04T12:37:55;93.03;;;87.07;;
10452;SDS011;5274;51.992;8.518;2024-02-04T12:40:25;89.68;;;84.05;;
10452;SDS011;5274;51.992;8.518;2024-02-04T12:42:56;96.50;;;90.05;;
10452;SDS011;5274;51.992;8.518;2024-02-04T12:45:23;95.93;;;89.43;;
10452;SDS011;5274;51.992;8.518;2024-02-04T12:47:52;97.80;;;91.05;;
10452;SDS011;5274;51.992;8.518;2024-02-04T12:50:18;97.43;;;90.78;;
10452;SDS011;5274;51.992;8.518;2024-02-04T12:52:45;98.28;;;91.68;;
10452;SDS011;5274;51.992;8.518;2024-02-04T12:55:26;97.07;;;90.68;;
10452;SDS011;5274;51.992;8.518;2024-02-04T12:58:08;95.28;;;88.85;;
10452;SDS011;5274;51.992;8.518;2024-02-04T13:00:37;90.35;;;84.57;;
10452;SDS011;5274;51.992;8.518;2024-02-04T13:03:04;91.65;;;85.68;;
10452;SDS011;5274;51.992;8.518;2024-02-04T13:05:30;85.15;;;79.80;;
10452;SDS011;5274;51.992;8.518;2024-02-04T13:07:57;94.20;;;87.80;;
10452;SDS011;5274;51.992;8.518;2024-02-04T13:10:27;87.50;;;81.85;;
10452;SDS011;5274;51.992;8.518;2024-02-04T13:15:25;96.22;;;89.78;;
10452;SDS011;5274;51.992;8.518;2024-02-04T13:17:52;97.33;;;90.90;;
10452;SDS011;5274;51.992;8.518;2024-02-04T13:20:17;92.43;;;86.20;;
10452;SDS011;5274;51.992;8.518;2024-02-04T13:22:43;91.13;;;84.97;;
10452;SDS011;5274;51.992;8.518;2024-02-04T13:25:08;86.67;;;81.37;;
10452;SDS011;5274;51.992;8.518;2024-02-04T13:27:34;94.90;;;88.53;;
10452;SDS011;5274;51.992;8.518;2024-02-04T13:29:59;87.60;;;81.83;;
10452;SDS011;5274;51.992;8.518;2024-02-04T13:32:25;89.63;;;83.43;;
10452;SDS011;5274;51.992;8.518;2024-02-04T13:34:50;86.82;;;81.03;;
10452;SDS011;5274;51.992;8.518;2024-02-04T13:37:16;87.68;;;81.88;;
10452;SDS011;5274;51.992;8.518;2024-02-04T13:39:42;85.67;;;79.97;;
10452;SDS011;5274;51.992;8.518;2024-02-04T13:42:09;91.68;;;85.38;;
10452;SDS011;5274;51.992;8.518;2024-02-04T13:44:35;85.43;;;79.90;;
10452;SDS011;5274;51.992;8.518;2024-02-04T13:47:00;85.17;;;79.63;;
10452;SDS011;5274;51.992;8.518;2024-02-04T13:49:26;82.13;;;76.60;;
10452;SDS011;5274;51.992;8.518;2024-02-04T13:51:52;85.22;;;79.38;;
10452;SDS011;5274;51.992;8.518;2024-02-04T13:54:17;82.97;;;77.37;;
10452;SDS011;5274;51.992;8.518;2024-02-04T13:56:43;84.25;;;78.55;;
10452;SDS011;5274;51.992;8.518;2024-02-04T13:59:09;73.50;;;68.53;;
10452;SDS011;5274;51.992;8.518;2024-02-04T14:01:34;78.30;;;73.13;;
10452;SDS011;5274;51.992;8.518;2024-02-04T14:04:00;84.27;;;79.10;;
10452;SDS011;5274;51.992;8.518;2024-02-04T14:06:25;83.03;;;77.72;;
10452;SDS011;5274;51.992;8.518;2024-02-04T14:08:51;87.23;;;81.57;;
10452;SDS011;5274;51.992;8.518;2024-02-04T14:11:16;88.17;;;82.33;;
10452;SDS011;5274;51.992;8.518;2024-02-04T14:13:42;86.40;;;80.70;;
10452;SDS011;5274;51.992;8.518;2024-02-04T14:16:07;83.35;;;78.03;;
10452;SDS011;5274;51.992;8.518;2024-02-04T14:18:34;86.97;;;81.03;;
10452;SDS011;5274;51.992;8.518;2024-02-04T14:20:59;83.13;;;77.60;;
10452;SDS011;5274;51.992;8.518;2024-02-04T14:23:25;86.45;;;80.75;;
10452;SDS011;5274;51.992;8.518;2024-02-04T14:25:50;85.27;;;79.70;;
10452;SDS011;5274;51.992;8.518;2024-02-04T14:28:17;81.97;;;76.83;;
10452;SDS011;5274;51.992;8.518;2024-02-04T14:30:43;87.35;;;81.45;;
10452;SDS011;5274;51.992;8.518;2024-02-04T14:33:08;82.83;;;77.40;;
10452;SDS011;5274;51.992;8.518;2024-02-04T14:35:34;78.53;;;73.63;;
10452;SDS011;5274;51.992;8.518;2024-02-04T14:37:59;80.37;;;75.37;;
10452;SDS011;5274;51.992;8.518;2024-02-04T14:40:25;83.63;;;78.13;;